createdAt,value
2018-12-08T00:00:22.710Z,9.80
2018-12-08T00:02:51.444Z,9.90
2018-12-08T00:05:20.178Z,9.80
2018-12-08T00:07:48.774Z,9.80
2018-12-08T00:10:17.318Z,9.80
2018-12-08T00:12:45.879Z,9.80
2018-12-08T00:15:14.723Z,9.70
2018-12-08T00:17:43.333Z,9.70
2018-12-08T00:20:11.860Z,9.70
2018-12-08T00:22:40.578Z,9.70
2018-12-08T00:25:09.262Z,9.70
2018-12-08T00:27:38.093Z,9.60
2018-12-08T00:30:24.620Z,9.60
2018-12-08T00:32:53.169Z,9.60
2018-12-08T00:35:21.991Z,9.60
2018-12-08T00:37:50.726Z,9.60
2018-12-08T00:40:19.357Z,9.50
2018-12-08T00:42:48.189Z,9.50
2018-12-08T00:45:16.825Z,9.50
2018-12-08T00:47:45.525Z,9.40
2018-12-08T00:50:14.399Z,9.40
2018-12-08T00:52:43.385Z,9.50
2018-12-08T00:55:11.955Z,9.50
2018-12-08T00:57:41.047Z,9.50
2018-12-08T01:00:10.463Z,9.50
2018-12-08T01:02:39.106Z,9.50
2018-12-08T01:05:07.763Z,9.40
2018-12-08T01:07:36.563Z,9.40
2018-12-08T01:10:06.618Z,9.30
2018-12-08T01:12:35.457Z,9.40
2018-12-08T01:15:04.970Z,9.40
2018-12-08T01:17:33.604Z,9.30
2018-12-08T01:20:02.438Z,9.30
2018-12-08T01:22:31.074Z,9.30
2018-12-08T01:24:59.749Z,9.30
2018-12-08T01:27:28.406Z,9.20
2018-12-08T01:29:57.174Z,9.20
2018-12-08T01:32:25.810Z,9.20
2018-12-08T01:34:54.511Z,9.20
2018-12-08T01:37:23.281Z,9.10
2018-12-08T01:39:51.917Z,9.10
2018-12-08T01:42:20.555Z,9.10
2018-12-08T01:44:49.104Z,9.10
2018-12-08T01:47:18.020Z,9.10
2018-12-08T01:49:46.574Z,9.10
2018-12-08T01:52:15.289Z,9.10
2018-12-08T01:54:43.845Z,9.00
2018-12-08T01:57:12.368Z,9.00
2018-12-08T01:59:40.998Z,9.00
2018-12-08T02:02:09.895Z,9.10
2018-12-08T02:04:38.400Z,9.00
2018-12-08T02:07:07.063Z,9.00
2018-12-08T02:09:35.703Z,9.00
2018-12-08T02:12:04.569Z,9.00
2018-12-08T02:14:33.203Z,9.00
2018-12-08T02:17:01.702Z,9.00
2018-12-08T02:19:30.278Z,9.00
2018-12-08T02:21:58.915Z,9.00
2018-12-08T02:24:27.548Z,9.00
2018-12-08T02:26:56.049Z,8.90
2018-12-08T02:29:24.546Z,8.90
2018-12-08T02:31:53.266Z,9.00
2018-12-08T02:34:22.158Z,9.00
2018-12-08T02:36:50.921Z,9.00
2018-12-08T02:39:19.480Z,9.10
2018-12-08T02:41:48.192Z,9.10
2018-12-08T02:44:16.711Z,9.20
2018-12-08T02:46:45.425Z,9.20
2018-12-08T02:49:14.067Z,9.10
2018-12-08T02:51:42.600Z,9.00
2018-12-08T02:54:11.244Z,9.00
2018-12-08T02:56:39.706Z,9.00
2018-12-08T02:59:08.348Z,8.90
2018-12-08T03:01:37.168Z,8.90
2018-12-08T03:04:05.911Z,8.90
2018-12-08T03:06:34.669Z,8.90
2018-12-08T03:09:03.379Z,8.90
2018-12-08T03:11:32.010Z,8.90
2018-12-08T03:14:00.647Z,8.90
2018-12-08T03:16:29.352Z,8.90
2018-12-08T03:18:57.995Z,8.90
2018-12-08T03:21:26.687Z,8.90
2018-12-08T03:23:55.305Z,8.80
2018-12-08T03:26:23.997Z,8.80
2018-12-08T03:28:52.655Z,8.80
2018-12-08T03:31:21.158Z,8.80
2018-12-08T03:33:49.897Z,8.80
2018-12-08T03:36:18.758Z,8.80
2018-12-08T03:38:47.588Z,8.80
2018-12-08T03:41:16.025Z,8.80
2018-12-08T03:43:44.862Z,8.80
2018-12-08T03:46:13.496Z,8.90
2018-12-08T03:48:42.198Z,8.80
2018-12-08T03:51:10.892Z,8.80
2018-12-08T03:53:39.597Z,8.90
2018-12-08T03:56:08.429Z,8.90
2018-12-08T03:58:37.263Z,9.00
2018-12-08T04:01:05.898Z,9.00
2018-12-08T04:03:34.532Z,9.00
2018-12-08T04:06:03.366Z,9.00
2018-12-08T04:08:32.104Z,9.10
2018-12-08T04:11:00.698Z,9.00
2018-12-08T04:13:29.467Z,9.10
2018-12-08T04:15:57.971Z,9.10
2018-12-08T04:18:26.732Z,9.10
2018-12-08T04:20:55.375Z,9.10
2018-12-08T04:23:24.214Z,9.10
2018-12-08T04:25:52.944Z,9.10
2018-12-08T04:28:21.774Z,9.10
2018-12-08T04:30:50.307Z,9.10
2018-12-08T04:33:18.961Z,9.10
2018-12-08T04:35:47.502Z,9.10
2018-12-08T04:38:16.318Z,9.20
2018-12-08T04:40:45.046Z,9.20
2018-12-08T04:43:13.876Z,9.30
2018-12-08T04:45:42.512Z,9.30
2018-12-08T04:48:11.146Z,9.30
2018-12-08T04:50:39.782Z,9.30
2018-12-08T04:53:08.419Z,9.30
2018-12-08T04:55:37.151Z,9.30
2018-12-08T04:58:05.778Z,9.30
2018-12-08T05:00:34.526Z,9.30
2018-12-08T05:03:03.157Z,9.40
2018-12-08T05:05:31.738Z,9.30
2018-12-08T05:08:00.352Z,9.40
2018-12-08T05:10:29.062Z,9.40
2018-12-08T05:12:57.786Z,9.40
2018-12-08T05:15:26.448Z,9.40
2018-12-08T05:17:55.033Z,9.40
2018-12-08T05:20:23.801Z,9.40
2018-12-08T05:22:52.354Z,9.20
2018-12-08T05:25:20.875Z,9.20
2018-12-08T05:27:49.714Z,9.20
2018-12-08T05:30:18.455Z,9.10
2018-12-08T05:32:47.185Z,9.10
2018-12-08T05:35:15.810Z,9.00
2018-12-08T05:37:44.383Z,9.00
2018-12-08T05:40:13.080Z,9.00
2018-12-08T05:42:41.724Z,8.90
2018-12-08T05:45:10.548Z,8.90
2018-12-08T05:47:39.502Z,8.90
2018-12-08T05:50:08.478Z,8.90
2018-12-08T05:52:37.169Z,8.90
2018-12-08T05:55:06.073Z,8.80
2018-12-08T05:57:34.621Z,8.80
2018-12-08T06:00:03.738Z,8.80
2018-12-08T06:02:32.249Z,8.80
2018-12-08T06:05:00.915Z,8.80
2018-12-08T06:07:29.615Z,8.70
2018-12-08T06:09:58.208Z,8.70
2018-12-08T06:12:26.915Z,8.70
2018-12-08T06:14:55.748Z,8.70
2018-12-08T06:17:24.775Z,8.60
2018-12-08T06:19:53.807Z,8.60
2018-12-08T06:22:22.369Z,8.60
2018-12-08T06:24:51.076Z,8.60
2018-12-08T06:27:19.909Z,8.60
2018-12-08T06:29:48.666Z,8.60
2018-12-08T06:32:17.534Z,8.60
2018-12-08T06:34:46.274Z,8.50
2018-12-08T06:37:14.811Z,8.50
2018-12-08T06:39:43.476Z,8.50
2018-12-08T06:42:12.190Z,8.50
2018-12-08T06:44:40.680Z,8.50
2018-12-08T06:47:09.581Z,8.50
2018-12-08T06:49:38.536Z,8.60
2018-12-08T06:52:07.243Z,8.60
2018-12-08T06:54:36.075Z,8.60
2018-12-08T06:57:04.630Z,8.60
2018-12-08T06:59:33.346Z,8.50
2018-12-08T07:02:01.914Z,8.50
2018-12-08T07:04:30.512Z,8.50
2018-12-08T07:06:59.164Z,8.50
2018-12-08T07:09:27.889Z,8.40
2018-12-08T07:11:56.523Z,8.40
2018-12-08T07:14:25.139Z,8.40
2018-12-08T07:16:53.661Z,8.40
2018-12-08T07:19:22.460Z,8.40
2018-12-08T07:21:51.146Z,8.40
2018-12-08T07:24:19.818Z,8.40
2018-12-08T07:26:48.533Z,8.40
2018-12-08T07:29:17.231Z,8.40
2018-12-08T07:31:45.963Z,8.40
2018-12-08T07:34:14.507Z,8.50
2018-12-08T07:36:43.140Z,8.50
2018-12-08T07:39:11.782Z,8.50
2018-12-08T07:41:40.272Z,8.60
2018-12-08T07:44:09.176Z,8.50
2018-12-08T07:46:38.009Z,8.60
2018-12-08T07:49:06.768Z,8.60
2018-12-08T07:51:35.475Z,8.60
2018-12-08T07:54:04.221Z,8.60
2018-12-08T07:56:32.946Z,8.60
2018-12-08T07:59:01.477Z,8.70
2018-12-08T08:01:30.090Z,8.70
2018-12-08T08:03:58.834Z,8.70
2018-12-08T08:06:27.595Z,8.70
2018-12-08T08:08:56.234Z,8.80
2018-12-08T08:11:25.148Z,8.80
2018-12-08T08:13:53.985Z,8.90
2018-12-08T08:16:22.812Z,8.90
2018-12-08T08:18:51.643Z,9.00
2018-12-08T08:21:20.279Z,9.00
2018-12-08T08:23:48.823Z,9.00
2018-12-08T08:26:17.618Z,9.10
2018-12-08T08:28:46.382Z,9.10
2018-12-08T08:31:15.144Z,9.10
2018-12-08T08:33:43.758Z,9.20
2018-12-08T08:36:12.274Z,9.20
2018-12-08T08:38:40.925Z,9.30
2018-12-08T08:41:09.427Z,9.60
2018-12-08T08:43:38.258Z,9.60
2018-12-08T08:46:07.057Z,9.70
2018-12-08T08:48:35.774Z,9.70
2018-12-08T08:51:04.496Z,9.70
2018-12-08T08:53:33.228Z,9.80
2018-12-08T08:56:01.962Z,9.80
2018-12-08T08:58:30.796Z,9.80
2018-12-08T09:00:59.324Z,9.90
2018-12-08T09:03:28.066Z,10.00
2018-12-08T09:05:56.627Z,10.10
2018-12-08T09:08:25.336Z,10.10
2018-12-08T09:10:53.969Z,10.10
2018-12-08T09:13:22.818Z,10.10
2018-12-08T09:15:51.438Z,10.20
2018-12-08T09:18:20.202Z,10.30
2018-12-08T09:20:50.541Z,10.30
2018-12-08T09:23:19.112Z,10.40
2018-12-08T09:25:48.046Z,10.40
2018-12-08T09:28:16.974Z,10.40
2018-12-08T09:30:45.748Z,10.50
2018-12-08T09:33:14.308Z,10.50
2018-12-08T09:35:43.005Z,10.60
2018-12-08T09:38:11.711Z,10.70
2018-12-08T09:40:40.537Z,10.80
2018-12-08T09:43:09.376Z,10.80
2018-12-08T09:45:41.812Z,10.90
2018-12-08T09:48:08.811Z,10.90
2018-12-08T09:50:37.521Z,10.90
2018-12-08T09:53:16.182Z,11.00
2018-12-08T09:55:44.852Z,11.00
2018-12-08T09:58:13.577Z,11.20
2018-12-08T10:00:42.210Z,11.20
2018-12-08T10:03:10.918Z,11.30
2018-12-08T10:05:39.834Z,11.40
2018-12-08T10:08:08.509Z,11.50
2018-12-08T10:10:37.216Z,11.60
2018-12-08T10:13:05.904Z,11.60
2018-12-08T10:15:34.594Z,11.70
2018-12-08T10:18:03.445Z,11.90
2018-12-08T10:20:32.279Z,12.20
2018-12-08T10:23:00.890Z,12.50
2018-12-08T10:25:29.479Z,12.90
2018-12-08T10:27:58.184Z,13.20
2018-12-08T10:30:27.024Z,13.50
2018-12-08T10:32:55.845Z,13.60
2018-12-08T10:35:24.613Z,13.60
2018-12-08T10:37:53.181Z,13.60
2018-12-08T10:40:21.918Z,13.80
2018-12-08T10:42:50.779Z,13.70
2018-12-08T10:45:19.611Z,14.00
2018-12-08T10:47:48.443Z,14.00
2018-12-08T10:50:17.182Z,14.20
2018-12-08T10:52:45.911Z,14.20
2018-12-08T10:55:14.546Z,14.00
2018-12-08T10:57:43.380Z,13.70
2018-12-08T11:00:14.338Z,13.70
2018-12-08T11:02:44.956Z,13.60
2018-12-08T11:05:13.808Z,13.40
2018-12-08T11:07:42.582Z,13.30
2018-12-08T11:10:11.345Z,13.10
2018-12-08T11:12:40.047Z,13.00
2018-12-08T11:15:08.744Z,13.10
2018-12-08T11:17:37.292Z,13.10
2018-12-08T11:20:06.852Z,13.10
2018-12-08T11:22:35.546Z,13.00
2018-12-08T11:25:04.339Z,13.10
2018-12-08T11:27:33.076Z,13.10
2018-12-08T11:30:01.621Z,13.20
2018-12-08T11:32:30.238Z,13.30
2018-12-08T11:34:58.808Z,13.30
2018-12-08T11:37:27.517Z,13.40
2018-12-08T11:39:56.151Z,13.40
2018-12-08T11:42:24.893Z,13.50
2018-12-08T11:44:53.806Z,13.50
2018-12-08T11:47:22.298Z,13.50
2018-12-08T11:49:51.137Z,13.40
2018-12-08T11:52:19.779Z,13.20
2018-12-08T11:54:48.478Z,13.30
2018-12-08T11:57:17.510Z,13.20
2018-12-08T11:59:46.146Z,13.30
2018-12-08T12:02:16.678Z,13.30
2018-12-08T12:04:45.972Z,13.40
2018-12-08T12:07:14.517Z,13.60
2018-12-08T12:09:43.157Z,13.60
2018-12-08T12:12:11.796Z,13.40
2018-12-08T12:14:46.802Z,13.20
2018-12-08T12:17:15.561Z,13.10
2018-12-08T12:19:44.191Z,13.00
2018-12-08T12:22:12.906Z,13.00
2018-12-08T12:24:41.540Z,13.00
2018-12-08T12:27:10.175Z,12.90
2018-12-08T12:29:39.006Z,12.90
2018-12-08T12:32:07.514Z,12.90
2018-12-08T12:34:36.276Z,12.90
2018-12-08T12:37:04.848Z,12.90
2018-12-08T12:39:33.547Z,13.10
2018-12-08T12:42:04.384Z,13.10
2018-12-08T12:44:33.571Z,13.20
2018-12-08T12:47:02.434Z,13.20
2018-12-08T12:49:31.209Z,13.20
2018-12-08T12:51:59.783Z,13.30
2018-12-08T12:54:28.309Z,13.30
2018-12-08T12:56:56.840Z,13.20
2018-12-08T12:59:25.305Z,13.20
2018-12-08T13:01:53.820Z,13.10
2018-12-08T13:04:22.653Z,13.10
2018-12-08T13:06:51.488Z,13.20
2018-12-08T13:09:19.918Z,13.30
2018-12-08T13:11:49.077Z,13.30
2018-12-08T13:14:17.542Z,13.20
2018-12-08T13:16:46.108Z,13.00
2018-12-08T13:19:14.730Z,12.80
2018-12-08T13:21:43.413Z,12.70
2018-12-08T13:24:12.136Z,12.70
2018-12-08T13:26:40.765Z,12.70
2018-12-08T13:29:09.581Z,12.60
2018-12-08T13:31:38.122Z,12.60
2018-12-08T13:37:03.566Z,12.60
2018-12-08T13:39:32.369Z,12.70
2018-12-08T13:42:01.203Z,12.60
2018-12-08T13:44:36.961Z,12.60
2018-12-08T13:47:05.877Z,12.70
2018-12-08T13:49:35.950Z,12.60
2018-12-08T13:52:05.264Z,12.60
2018-12-08T13:54:46.783Z,12.80
2018-12-08T13:57:15.714Z,12.80
2018-12-08T13:59:51.193Z,12.70
2018-12-08T14:02:20.250Z,12.70
2018-12-08T14:04:48.976Z,12.60
2018-12-08T14:07:17.649Z,12.70
2018-12-08T14:09:46.484Z,12.70
2018-12-08T14:12:15.102Z,12.50
2018-12-08T14:14:43.690Z,12.60
2018-12-08T14:17:12.258Z,12.80
2018-12-08T14:19:40.959Z,12.80
2018-12-08T14:22:09.597Z,12.80
2018-12-08T14:24:38.364Z,12.70
2018-12-08T14:27:07.194Z,12.60
2018-12-08T14:29:36.025Z,12.70
2018-12-08T14:32:04.768Z,12.60
2018-12-08T14:34:33.515Z,12.70
2018-12-08T14:37:02.249Z,12.70
2018-12-08T14:39:30.762Z,12.70
2018-12-08T14:41:59.553Z,12.70
2018-12-08T14:44:28.230Z,12.70
2018-12-08T14:46:56.984Z,12.70
2018-12-08T14:49:25.851Z,12.70
2018-12-08T14:51:54.397Z,12.90
2018-12-08T14:54:23.119Z,12.90
2018-12-08T14:56:51.768Z,12.90
2018-12-08T14:59:20.302Z,13.10
2018-12-08T15:01:49.011Z,13.10
2018-12-08T15:04:17.574Z,13.20
2018-12-08T15:06:46.409Z,13.20
2018-12-08T15:09:15.045Z,13.20
2018-12-08T15:11:43.770Z,13.20
2018-12-08T15:14:12.513Z,13.10
2018-12-08T15:16:41.473Z,13.10
2018-12-08T15:19:10.304Z,13.10
2018-12-08T15:21:39.136Z,13.10
2018-12-08T15:24:08.033Z,13.00
2018-12-08T15:26:36.781Z,12.90
2018-12-08T15:29:05.416Z,12.80
2018-12-08T15:31:34.071Z,12.80
2018-12-08T15:34:03.032Z,12.80
2018-12-08T15:36:31.934Z,12.70
2018-12-08T15:39:00.713Z,12.70
2018-12-08T15:41:29.590Z,12.60
2018-12-08T15:43:58.428Z,12.60
2018-12-08T15:46:26.989Z,12.50
2018-12-08T15:48:55.698Z,12.50
2018-12-08T15:51:24.531Z,12.50
2018-12-08T15:53:53.370Z,12.50
2018-12-08T15:56:22.391Z,12.50
2018-12-08T15:58:51.028Z,12.50
2018-12-08T16:01:19.596Z,12.40
2018-12-08T16:03:48.336Z,12.30
2018-12-08T16:06:17.325Z,12.30
2018-12-08T16:08:46.157Z,12.30
2018-12-08T16:11:14.687Z,12.20
2018-12-08T16:13:43.234Z,12.20
2018-12-08T16:16:11.866Z,12.10
2018-12-08T16:18:40.437Z,12.10
2018-12-08T16:21:09.151Z,12.10
2018-12-08T16:23:37.947Z,12.10
2018-12-08T16:26:06.870Z,12.10
2018-12-08T16:28:35.683Z,12.10
2018-12-08T16:31:04.353Z,12.00
2018-12-08T16:33:33.493Z,12.10
2018-12-08T16:36:01.985Z,12.00
2018-12-08T16:38:30.960Z,11.90
2018-12-08T16:40:59.568Z,11.90
2018-12-08T16:43:28.302Z,11.80
2018-12-08T16:45:57.263Z,12.00
2018-12-08T16:48:26.095Z,11.80
2018-12-08T16:50:54.889Z,11.80
2018-12-08T16:53:23.427Z,11.70
2018-12-08T16:55:52.194Z,11.70
2018-12-08T16:58:20.615Z,11.70
2018-12-08T17:00:49.466Z,11.70
2018-12-08T17:03:17.971Z,11.60
2018-12-08T17:05:46.735Z,11.60
2018-12-08T17:08:15.665Z,11.60
2018-12-08T17:10:44.399Z,11.60
2018-12-08T17:13:13.194Z,11.60
2018-12-08T17:15:41.973Z,11.50
2018-12-08T17:18:10.680Z,11.50
2018-12-08T17:20:39.730Z,11.50
2018-12-08T17:23:08.558Z,11.60
2018-12-08T17:25:37.292Z,11.50
2018-12-08T17:28:06.147Z,11.60
2018-12-08T17:30:34.839Z,11.60
2018-12-08T17:33:03.382Z,11.60
2018-12-08T17:35:32.288Z,11.60
2018-12-08T17:38:00.855Z,11.60
2018-12-08T17:40:29.484Z,11.60
2018-12-08T17:42:58.128Z,11.60
2018-12-08T17:45:26.947Z,11.60
2018-12-08T17:47:55.699Z,11.60
2018-12-08T17:50:24.453Z,11.60
2018-12-08T17:52:53.346Z,11.60
2018-12-08T17:55:21.998Z,11.60
2018-12-08T17:57:50.731Z,11.60
2018-12-08T18:00:19.470Z,11.60
2018-12-08T18:02:48.251Z,11.60
2018-12-08T18:05:17.027Z,11.60
2018-12-08T18:07:45.962Z,11.50
2018-12-08T18:10:14.598Z,11.50
2018-12-08T18:12:43.625Z,11.60
2018-12-08T18:15:12.655Z,11.60
2018-12-08T18:17:41.492Z,11.60
2018-12-08T18:20:10.311Z,11.60
2018-12-08T18:22:39.398Z,11.60
2018-12-08T18:25:08.179Z,11.60
2018-12-08T18:27:36.963Z,11.60
2018-12-08T18:30:07.613Z,11.60
2018-12-08T18:32:36.316Z,11.60
2018-12-08T18:35:05.443Z,11.60
2018-12-08T18:37:33.976Z,11.50
2018-12-08T18:40:02.968Z,11.50
2018-12-08T18:42:31.842Z,11.50
2018-12-08T18:45:00.604Z,11.50
2018-12-08T18:47:30.676Z,11.50
2018-12-08T18:49:59.368Z,11.50
2018-12-08T18:52:27.772Z,11.40
2018-12-08T18:54:56.522Z,11.40
2018-12-08T18:57:25.146Z,11.40
2018-12-08T18:59:53.793Z,11.30
2018-12-08T19:02:22.579Z,11.20
2018-12-08T19:04:51.174Z,11.30
2018-12-08T19:07:19.957Z,11.20
2018-12-08T19:09:48.628Z,11.20
2018-12-08T19:12:17.559Z,11.20
2018-12-08T19:14:46.316Z,11.10
2018-12-08T19:17:15.114Z,11.00
2018-12-08T19:19:44.057Z,11.10
2018-12-08T19:22:12.847Z,11.10
2018-12-08T19:24:41.435Z,11.00
2018-12-08T19:27:10.028Z,11.10
2018-12-08T19:29:38.748Z,11.10
2018-12-08T19:32:07.337Z,11.20
2018-12-08T19:34:36.259Z,11.10
2018-12-08T19:37:04.972Z,11.10
2018-12-08T19:39:33.729Z,11.20
2018-12-08T19:42:02.439Z,11.20
2018-12-08T19:44:31.179Z,11.10
2018-12-08T19:47:00.025Z,11.00
2018-12-08T19:49:28.809Z,11.10
2018-12-08T19:51:57.584Z,11.10
2018-12-08T19:54:26.524Z,11.10
2018-12-08T19:56:55.354Z,10.90
2018-12-08T19:59:23.988Z,10.90
2018-12-08T20:01:52.626Z,11.00
2018-12-08T20:04:21.374Z,11.00
2018-12-08T20:06:50.292Z,11.00
2018-12-08T20:09:19.321Z,11.00
2018-12-08T20:11:48.141Z,11.10
2018-12-08T20:14:16.980Z,11.10
2018-12-08T20:16:45.599Z,11.20
2018-12-08T20:19:14.251Z,11.30
2018-12-08T20:21:42.887Z,11.30
2018-12-08T20:24:11.597Z,11.30
2018-12-08T20:26:40.550Z,11.20
2018-12-08T20:29:09.312Z,11.30
2018-12-08T20:31:38.017Z,11.30
2018-12-08T20:34:06.849Z,11.30
2018-12-08T20:36:35.564Z,11.20
2018-12-08T20:39:04.908Z,11.30
2018-12-08T20:41:33.673Z,11.30
2018-12-08T20:44:02.489Z,11.20
2018-12-08T20:46:31.205Z,11.20
2018-12-08T20:49:00.037Z,11.20
2018-12-08T20:51:28.638Z,11.20
2018-12-08T20:53:57.284Z,11.30
2018-12-08T20:56:26.052Z,11.30
2018-12-08T20:58:54.774Z,11.30
2018-12-08T21:01:23.319Z,11.20
2018-12-08T21:03:52.012Z,11.30
2018-12-08T21:06:21.075Z,11.20
2018-12-08T21:08:49.905Z,11.30
2018-12-08T21:11:18.507Z,11.30
2018-12-08T21:13:47.373Z,11.30
2018-12-08T21:16:16.090Z,11.40
2018-12-08T21:18:44.838Z,11.40
2018-12-08T21:21:13.473Z,11.30
2018-12-08T21:23:42.312Z,11.30
2018-12-08T21:26:11.138Z,11.40
2018-12-08T21:28:39.858Z,11.40
2018-12-08T21:31:08.998Z,11.40
2018-12-08T21:33:37.710Z,11.40
2018-12-08T21:36:06.221Z,11.40
2018-12-08T21:38:35.097Z,11.40
2018-12-08T21:41:04.128Z,11.40
2018-12-08T21:43:32.956Z,11.40
2018-12-08T21:46:01.726Z,11.40
2018-12-08T21:48:31.034Z,11.40
2018-12-08T21:50:59.933Z,11.40
2018-12-08T21:53:28.583Z,11.40
2018-12-08T21:55:57.241Z,11.40
2018-12-08T21:58:25.936Z,11.50
2018-12-08T22:00:54.785Z,11.50
2018-12-08T22:03:23.617Z,11.50
2018-12-08T22:05:52.361Z,11.50
2018-12-08T22:08:20.802Z,11.50
2018-12-08T22:10:49.407Z,11.50
2018-12-08T22:13:18.159Z,11.50
2018-12-08T22:15:46.731Z,11.60
2018-12-08T22:18:15.623Z,11.60
2018-12-08T22:20:44.456Z,11.50
2018-12-08T22:23:13.091Z,11.60
2018-12-08T22:25:41.991Z,11.60
2018-12-08T22:28:10.755Z,11.60
2018-12-08T22:30:39.460Z,11.60
2018-12-08T22:33:08.320Z,11.70
2018-12-08T22:35:37.057Z,11.70
2018-12-08T22:38:05.693Z,11.70
2018-12-08T22:40:34.328Z,11.70
2018-12-08T22:43:03.354Z,11.70
2018-12-08T22:45:32.087Z,11.70
2018-12-08T22:48:00.820Z,11.70
2018-12-08T22:50:29.528Z,11.80
2018-12-08T22:52:58.014Z,11.80
2018-12-08T22:55:26.707Z,11.80
2018-12-08T22:57:55.558Z,11.80
2018-12-08T23:00:36.989Z,11.80
2018-12-08T23:03:05.805Z,11.80
2018-12-08T23:05:34.766Z,11.80
2018-12-08T23:08:03.397Z,11.90
2018-12-08T23:10:32.033Z,11.90
2018-12-08T23:13:01.076Z,12.00
2018-12-08T23:15:30.121Z,12.10
2018-12-08T23:17:58.796Z,12.20
2018-12-08T23:20:27.630Z,12.20
2018-12-08T23:22:56.467Z,12.30
2018-12-08T23:25:25.287Z,12.40
2018-12-08T23:27:54.125Z,12.50
2018-12-08T23:30:22.647Z,12.50
2018-12-08T23:32:51.314Z,12.60
2018-12-08T23:35:20.006Z,12.70
2018-12-08T23:37:48.823Z,12.70
2018-12-08T23:40:17.694Z,12.80
2018-12-08T23:42:46.436Z,12.90
2018-12-08T23:45:15.075Z,12.90
2018-12-08T23:47:44.006Z,12.90
2018-12-08T23:50:12.824Z,13.00
2018-12-08T23:52:41.657Z,13.00
2018-12-08T23:55:10.493Z,13.00
2018-12-08T23:57:39.199Z,13.00
